sensor_id;sensor_type;location;lat;lon;timestamp;P1;durP1;ratioP1;P2;durP2;ratioP2
75696;SDS011;64312;44.738;20.612;2023-03-31T00:01:59;8.13;;;4.57;;
75696;SDS011;64312;44.738;20.612;2023-03-31T00:04:26;7.55;;;5.00;;
75696;SDS011;64312;44.738;20.612;2023-03-31T00:06:52;7.57;;;4.72;;
75696;SDS011;64312;44.738;20.612;2023-03-31T00:09:19;7.22;;;5.32;;
75696;SDS011;64312;44.738;20.612;2023-03-31T00:11:49;7.55;;;4.95;;
75696;SDS011;64312;44.738;20.612;2023-03-31T00:14:17;9.35;;;5.40;;
75696;SDS011;64312;44.738;20.612;2023-03-31T00:16:44;10.60;;;6.05;;
75696;SDS011;64312;44.738;20.612;2023-03-31T00:19:11;9.00;;;5.15;;
75696;SDS011;64312;44.738;20.612;2023-03-31T00:21:46;8.43;;;5.03;;
75696;SDS011;64312;44.738;20.612;2023-03-31T00:24:12;7.40;;;5.20;;
75696;SDS011;64312;44.738;20.612;2023-03-31T00:26:39;8.77;;;5.25;;
75696;SDS011;64312;44.738;20.612;2023-03-31T00:29:05;7.38;;;4.50;;
75696;SDS011;64312;44.738;20.612;2023-03-31T00:31:32;9.88;;;5.35;;
75696;SDS011;64312;44.738;20.612;2023-03-31T00:33:58;8.88;;;4.63;;
75696;SDS011;64312;44.738;20.612;2023-03-31T00:36:25;7.47;;;4.35;;
75696;SDS011;64312;44.738;20.612;2023-03-31T00:39:01;6.47;;;4.50;;
75696;SDS011;64312;44.738;20.612;2023-03-31T00:41:33;7.55;;;4.97;;
75696;SDS011;64312;44.738;20.612;2023-03-31T00:44:01;8.60;;;5.32;;
75696;SDS011;64312;44.738;20.612;2023-03-31T00:46:32;7.75;;;5.00;;
75696;SDS011;64312;44.738;20.612;2023-03-31T00:49:02;8.60;;;5.40;;
75696;SDS011;64312;44.738;20.612;2023-03-31T00:51:29;9.82;;;5.05;;
75696;SDS011;64312;44.738;20.612;2023-03-31T00:53:59;8.85;;;5.40;;
75696;SDS011;64312;44.738;20.612;2023-03-31T00:56:31;8.00;;;4.68;;
75696;SDS011;64312;44.738;20.612;2023-03-31T00:59:01;8.38;;;4.65;;
75696;SDS011;64312;44.738;20.612;2023-03-31T01:01:32;10.57;;;5.05;;
75696;SDS011;64312;44.738;20.612;2023-03-31T01:04:00;7.90;;;4.55;;
75696;SDS011;64312;44.738;20.612;2023-03-31T01:06:27;8.18;;;5.13;;
75696;SDS011;64312;44.738;20.612;2023-03-31T01:08:55;17.25;;;9.10;;
75696;SDS011;64312;44.738;20.612;2023-03-31T01:11:21;19.33;;;9.90;;
75696;SDS011;64312;44.738;20.612;2023-03-31T01:13:53;14.05;;;8.50;;
75696;SDS011;64312;44.738;20.612;2023-03-31T01:16:21;15.02;;;9.25;;
75696;SDS011;64312;44.738;20.612;2023-03-31T01:18:47;17.30;;;9.38;;
75696;SDS011;64312;44.738;20.612;2023-03-31T01:40:44;7.03;;;3.13;;
75696;SDS011;64312;44.738;20.612;2023-03-31T01:43:35;6.22;;;3.00;;
75696;SDS011;64312;44.738;20.612;2023-03-31T01:46:09;6.20;;;2.72;;
75696;SDS011;64312;44.738;20.612;2023-03-31T01:48:53;4.95;;;3.03;;
75696;SDS011;64312;44.738;20.612;2023-03-31T01:54:32;7.68;;;2.72;;
75696;SDS011;64312;44.738;20.612;2023-03-31T01:57:06;6.72;;;2.10;;
75696;SDS011;64312;44.738;20.612;2023-03-31T02:02:24;3.78;;;2.63;;
75696;SDS011;64312;44.738;20.612;2023-03-31T02:04:58;7.97;;;2.35;;
75696;SDS011;64312;44.738;20.612;2023-03-31T02:07:34;4.40;;;2.60;;
75696;SDS011;64312;44.738;20.612;2023-03-31T02:10:06;5.28;;;2.58;;
75696;SDS011;64312;44.738;20.612;2023-03-31T02:12:34;3.22;;;2.00;;
75696;SDS011;64312;44.738;20.612;2023-03-31T02:15:06;3.60;;;1.95;;
75696;SDS011;64312;44.738;20.612;2023-03-31T02:17:35;3.20;;;2.10;;
75696;SDS011;64312;44.738;20.612;2023-03-31T02:20:09;4.93;;;2.42;;
75696;SDS011;64312;44.738;20.612;2023-03-31T02:22:38;4.18;;;2.88;;
75696;SDS011;64312;44.738;20.612;2023-03-31T02:25:09;4.25;;;2.17;;
75696;SDS011;64312;44.738;20.612;2023-03-31T02:27:38;7.13;;;2.35;;
75696;SDS011;64312;44.738;20.612;2023-03-31T02:30:07;4.13;;;1.88;;
75696;SDS011;64312;44.738;20.612;2023-03-31T02:35:07;4.45;;;2.50;;
75696;SDS011;64312;44.738;20.612;2023-03-31T02:37:36;6.25;;;2.95;;
75696;SDS011;64312;44.738;20.612;2023-03-31T02:40:06;3.47;;;1.90;;
75696;SDS011;64312;44.738;20.612;2023-03-31T02:42:36;9.88;;;3.80;;
75696;SDS011;64312;44.738;20.612;2023-03-31T02:45:04;6.78;;;3.00;;
75696;SDS011;64312;44.738;20.612;2023-03-31T02:47:32;4.05;;;2.13;;
75696;SDS011;64312;44.738;20.612;2023-03-31T02:49:59;6.60;;;2.08;;
75696;SDS011;64312;44.738;20.612;2023-03-31T02:53:28;7.38;;;2.63;;
75696;SDS011;64312;44.738;20.612;2023-03-31T02:55:37;4.35;;;1.70;;
75696;SDS011;64312;44.738;20.612;2023-03-31T03:01:09;4.15;;;1.60;;
75696;SDS011;64312;44.738;20.612;2023-03-31T03:09:35;5.78;;;2.00;;
75696;SDS011;64312;44.738;20.612;2023-03-31T03:12:32;4.28;;;1.60;;
75696;SDS011;64312;44.738;20.612;2023-03-31T03:15:06;2.88;;;1.65;;
75696;SDS011;64312;44.738;20.612;2023-03-31T03:17:41;3.47;;;2.03;;
75696;SDS011;64312;44.738;20.612;2023-03-31T03:20:10;6.00;;;1.77;;
75696;SDS011;64312;44.738;20.612;2023-03-31T03:22:37;3.60;;;1.92;;
75696;SDS011;64312;44.738;20.612;2023-03-31T03:25:04;6.22;;;2.30;;
75696;SDS011;64312;44.738;20.612;2023-03-31T03:27:33;3.45;;;1.85;;
75696;SDS011;64312;44.738;20.612;2023-03-31T03:30:01;5.65;;;1.88;;
75696;SDS011;64312;44.738;20.612;2023-03-31T03:32:28;4.15;;;1.92;;
75696;SDS011;64312;44.738;20.612;2023-03-31T03:34:54;5.57;;;1.80;;
75696;SDS011;64312;44.738;20.612;2023-03-31T03:37:20;5.43;;;2.05;;
75696;SDS011;64312;44.738;20.612;2023-03-31T03:39:45;6.18;;;2.30;;
75696;SDS011;64312;44.738;20.612;2023-03-31T03:42:11;4.32;;;2.08;;
75696;SDS011;64312;44.738;20.612;2023-03-31T03:44:36;5.53;;;2.55;;
75696;SDS011;64312;44.738;20.612;2023-03-31T03:47:02;3.50;;;2.28;;
75696;SDS011;64312;44.738;20.612;2023-03-31T03:49:28;3.20;;;2.00;;
75696;SDS011;64312;44.738;20.612;2023-03-31T03:51:53;3.95;;;2.33;;
75696;SDS011;64312;44.738;20.612;2023-03-31T03:54:19;3.72;;;2.58;;
75696;SDS011;64312;44.738;20.612;2023-03-31T03:56:45;3.13;;;2.17;;
75696;SDS011;64312;44.738;20.612;2023-03-31T03:59:11;5.93;;;2.55;;
75696;SDS011;64312;44.738;20.612;2023-03-31T04:01:36;5.20;;;2.95;;
75696;SDS011;64312;44.738;20.612;2023-03-31T04:04:02;4.57;;;2.80;;
75696;SDS011;64312;44.738;20.612;2023-03-31T04:06:28;3.85;;;2.33;;
75696;SDS011;64312;44.738;20.612;2023-03-31T04:08:54;4.60;;;2.67;;
75696;SDS011;64312;44.738;20.612;2023-03-31T04:11:20;4.38;;;2.13;;
75696;SDS011;64312;44.738;20.612;2023-03-31T04:13:46;4.80;;;2.45;;
75696;SDS011;64312;44.738;20.612;2023-03-31T04:16:11;4.50;;;2.63;;
75696;SDS011;64312;44.738;20.612;2023-03-31T04:18:37;5.18;;;2.28;;
75696;SDS011;64312;44.738;20.612;2023-03-31T04:21:10;4.88;;;2.30;;
75696;SDS011;64312;44.738;20.612;2023-03-31T04:23:40;4.95;;;2.65;;
75696;SDS011;64312;44.738;20.612;2023-03-31T04:26:11;3.58;;;2.35;;
75696;SDS011;64312;44.738;20.612;2023-03-31T04:28:38;6.85;;;2.28;;
75696;SDS011;64312;44.738;20.612;2023-03-31T04:31:07;8.50;;;2.83;;
75696;SDS011;64312;44.738;20.612;2023-03-31T04:33:34;5.88;;;3.17;;
75696;SDS011;64312;44.738;20.612;2023-03-31T04:36:06;5.30;;;2.60;;
75696;SDS011;64312;44.738;20.612;2023-03-31T04:38:44;5.25;;;2.63;;
75696;SDS011;64312;44.738;20.612;2023-03-31T04:41:11;6.30;;;2.70;;
75696;SDS011;64312;44.738;20.612;2023-03-31T04:43:38;9.70;;;4.10;;
75696;SDS011;64312;44.738;20.612;2023-03-31T04:46:04;13.07;;;6.03;;
75696;SDS011;64312;44.738;20.612;2023-03-31T04:48:29;8.23;;;4.35;;
75696;SDS011;64312;44.738;20.612;2023-03-31T04:50:55;19.50;;;7.00;;
75696;SDS011;64312;44.738;20.612;2023-03-31T04:53:21;13.88;;;5.82;;
75696;SDS011;64312;44.738;20.612;2023-03-31T04:55:50;40.60;;;12.60;;
75696;SDS011;64312;44.738;20.612;2023-03-31T04:58:16;68.18;;;21.40;;
75696;SDS011;64312;44.738;20.612;2023-03-31T05:00:42;34.13;;;11.35;;
75696;SDS011;64312;44.738;20.612;2023-03-31T05:03:08;38.95;;;11.43;;
75696;SDS011;64312;44.738;20.612;2023-03-31T05:05:34;12.98;;;5.18;;
75696;SDS011;64312;44.738;20.612;2023-03-31T05:08:00;16.02;;;7.00;;
75696;SDS011;64312;44.738;20.612;2023-03-31T05:10:25;16.40;;;7.97;;
75696;SDS011;64312;44.738;20.612;2023-03-31T05:12:51;17.10;;;8.43;;
75696;SDS011;64312;44.738;20.612;2023-03-31T05:15:17;16.38;;;6.93;;
75696;SDS011;64312;44.738;20.612;2023-03-31T05:17:43;17.13;;;5.88;;
75696;SDS011;64312;44.738;20.612;2023-03-31T05:20:09;19.27;;;7.05;;
75696;SDS011;64312;44.738;20.612;2023-03-31T05:22:36;9.90;;;3.95;;
75696;SDS011;64312;44.738;20.612;2023-03-31T05:25:02;5.13;;;2.95;;
75696;SDS011;64312;44.738;20.612;2023-03-31T05:27:29;5.43;;;3.15;;
75696;SDS011;64312;44.738;20.612;2023-03-31T05:29:55;5.65;;;3.00;;
75696;SDS011;64312;44.738;20.612;2023-03-31T05:32:21;6.80;;;3.22;;
75696;SDS011;64312;44.738;20.612;2023-03-31T05:34:46;8.27;;;3.65;;
75696;SDS011;64312;44.738;20.612;2023-03-31T05:37:12;8.40;;;3.75;;
75696;SDS011;64312;44.738;20.612;2023-03-31T05:39:38;10.90;;;4.57;;
75696;SDS011;64312;44.738;20.612;2023-03-31T05:42:04;11.75;;;4.93;;
75696;SDS011;64312;44.738;20.612;2023-03-31T05:44:30;7.03;;;3.25;;
75696;SDS011;64312;44.738;20.612;2023-03-31T05:46:55;4.13;;;2.95;;
75696;SDS011;64312;44.738;20.612;2023-03-31T05:49:21;7.75;;;3.05;;
75696;SDS011;64312;44.738;20.612;2023-03-31T05:51:47;9.98;;;4.28;;
75696;SDS011;64312;44.738;20.612;2023-03-31T05:54:13;7.03;;;3.58;;
75696;SDS011;64312;44.738;20.612;2023-03-31T05:56:39;7.68;;;3.53;;
75696;SDS011;64312;44.738;20.612;2023-03-31T05:59:04;5.18;;;2.95;;
75696;SDS011;64312;44.738;20.612;2023-03-31T06:01:31;6.50;;;2.78;;
75696;SDS011;64312;44.738;20.612;2023-03-31T06:03:57;5.13;;;2.80;;
75696;SDS011;64312;44.738;20.612;2023-03-31T06:06:23;6.65;;;3.03;;
75696;SDS011;64312;44.738;20.612;2023-03-31T06:08:49;7.30;;;2.60;;
75696;SDS011;64312;44.738;20.612;2023-03-31T06:11:17;5.45;;;2.92;;
75696;SDS011;64312;44.738;20.612;2023-03-31T06:13:46;6.18;;;2.40;;
75696;SDS011;64312;44.738;20.612;2023-03-31T06:16:13;5.93;;;3.20;;
75696;SDS011;64312;44.738;20.612;2023-03-31T06:18:41;7.63;;;3.20;;
75696;SDS011;64312;44.738;20.612;2023-03-31T06:21:07;5.18;;;2.85;;
75696;SDS011;64312;44.738;20.612;2023-03-31T06:23:36;6.53;;;3.38;;
75696;SDS011;64312;44.738;20.612;2023-03-31T06:26:03;7.28;;;2.95;;
75696;SDS011;64312;44.738;20.612;2023-03-31T06:28:31;6.93;;;3.33;;
75696;SDS011;64312;44.738;20.612;2023-03-31T06:31:01;6.32;;;3.30;;
75696;SDS011;64312;44.738;20.612;2023-03-31T06:33:32;10.43;;;3.97;;
75696;SDS011;64312;44.738;20.612;2023-03-31T06:35:58;9.43;;;3.92;;
75696;SDS011;64312;44.738;20.612;2023-03-31T06:38:26;7.80;;;4.25;;
75696;SDS011;64312;44.738;20.612;2023-03-31T06:40:52;6.03;;;2.97;;
75696;SDS011;64312;44.738;20.612;2023-03-31T06:43:18;11.55;;;3.28;;
75696;SDS011;64312;44.738;20.612;2023-03-31T06:45:45;7.18;;;3.80;;
75696;SDS011;64312;44.738;20.612;2023-03-31T06:48:11;5.10;;;2.40;;
75696;SDS011;64312;44.738;20.612;2023-03-31T06:50:37;7.68;;;3.53;;
75696;SDS011;64312;44.738;20.612;2023-03-31T06:53:04;5.15;;;2.25;;
75696;SDS011;64312;44.738;20.612;2023-03-31T06:55:30;5.50;;;2.50;;
75696;SDS011;64312;44.738;20.612;2023-03-31T06:57:57;5.63;;;2.70;;
75696;SDS011;64312;44.738;20.612;2023-03-31T07:00:22;4.40;;;3.17;;
75696;SDS011;64312;44.738;20.612;2023-03-31T07:02:50;10.00;;;4.18;;
75696;SDS011;64312;44.738;20.612;2023-03-31T07:05:16;10.60;;;3.35;;
75696;SDS011;64312;44.738;20.612;2023-03-31T07:07:42;5.72;;;3.28;;
75696;SDS011;64312;44.738;20.612;2023-03-31T07:10:08;7.68;;;2.90;;
75696;SDS011;64312;44.738;20.612;2023-03-31T07:12:34;6.32;;;2.90;;
75696;SDS011;64312;44.738;20.612;2023-03-31T07:14:59;8.30;;;3.08;;
75696;SDS011;64312;44.738;20.612;2023-03-31T07:17:26;7.60;;;3.15;;
75696;SDS011;64312;44.738;20.612;2023-03-31T07:19:51;6.15;;;3.13;;
75696;SDS011;64312;44.738;20.612;2023-03-31T07:22:17;12.27;;;3.30;;
75696;SDS011;64312;44.738;20.612;2023-03-31T07:24:42;5.55;;;3.00;;
75696;SDS011;64312;44.738;20.612;2023-03-31T07:27:08;7.05;;;2.50;;
75696;SDS011;64312;44.738;20.612;2023-03-31T07:29:33;8.80;;;3.80;;
75696;SDS011;64312;44.738;20.612;2023-03-31T07:31:59;9.02;;;4.00;;
75696;SDS011;64312;44.738;20.612;2023-03-31T07:34:25;6.78;;;2.63;;
75696;SDS011;64312;44.738;20.612;2023-03-31T07:36:53;8.43;;;4.25;;
75696;SDS011;64312;44.738;20.612;2023-03-31T07:39:20;8.00;;;4.65;;
75696;SDS011;64312;44.738;20.612;2023-03-31T07:41:46;12.32;;;5.55;;
75696;SDS011;64312;44.738;20.612;2023-03-31T07:44:12;6.53;;;4.18;;
75696;SDS011;64312;44.738;20.612;2023-03-31T07:46:38;7.88;;;5.50;;
75696;SDS011;64312;44.738;20.612;2023-03-31T07:49:03;14.27;;;3.80;;
75696;SDS011;64312;44.738;20.612;2023-03-31T07:51:29;6.57;;;3.80;;
75696;SDS011;64312;44.738;20.612;2023-03-31T07:53:55;6.20;;;3.30;;
75696;SDS011;64312;44.738;20.612;2023-03-31T07:56:21;10.48;;;4.30;;
75696;SDS011;64312;44.738;20.612;2023-03-31T07:58:48;7.90;;;3.53;;
75696;SDS011;64312;44.738;20.612;2023-03-31T08:01:16;3.88;;;2.03;;
75696;SDS011;64312;44.738;20.612;2023-03-31T08:03:47;5.93;;;3.13;;
75696;SDS011;64312;44.738;20.612;2023-03-31T08:06:16;7.97;;;3.67;;
75696;SDS011;64312;44.738;20.612;2023-03-31T08:08:44;9.23;;;3.30;;
75696;SDS011;64312;44.738;20.612;2023-03-31T08:11:09;8.13;;;2.85;;
75696;SDS011;64312;44.738;20.612;2023-03-31T08:13:35;6.35;;;3.22;;
75696;SDS011;64312;44.738;20.612;2023-03-31T08:16:01;5.25;;;2.47;;
75696;SDS011;64312;44.738;20.612;2023-03-31T08:18:27;5.28;;;2.22;;
75696;SDS011;64312;44.738;20.612;2023-03-31T08:20:53;5.88;;;1.75;;
75696;SDS011;64312;44.738;20.612;2023-03-31T08:23:19;6.10;;;2.42;;
75696;SDS011;64312;44.738;20.612;2023-03-31T08:25:44;9.15;;;3.70;;
75696;SDS011;64312;44.738;20.612;2023-03-31T08:28:10;4.85;;;2.50;;
75696;SDS011;64312;44.738;20.612;2023-03-31T08:30:38;5.38;;;2.33;;
75696;SDS011;64312;44.738;20.612;2023-03-31T08:33:05;4.60;;;2.05;;
75696;SDS011;64312;44.738;20.612;2023-03-31T08:35:33;7.72;;;2.88;;
75696;SDS011;64312;44.738;20.612;2023-03-31T08:37:59;6.50;;;2.90;;
75696;SDS011;64312;44.738;20.612;2023-03-31T08:40:26;3.72;;;1.88;;
75696;SDS011;64312;44.738;20.612;2023-03-31T08:42:54;5.38;;;2.33;;
75696;SDS011;64312;44.738;20.612;2023-03-31T08:53:16;4.30;;;2.08;;
75696;SDS011;64312;44.738;20.612;2023-03-31T08:55:49;4.40;;;2.15;;
75696;SDS011;64312;44.738;20.612;2023-03-31T08:58:34;3.10;;;2.08;;
75696;SDS011;64312;44.738;20.612;2023-03-31T09:09:00;4.57;;;2.40;;
75696;SDS011;64312;44.738;20.612;2023-03-31T09:11:31;6.05;;;2.97;;
75696;SDS011;64312;44.738;20.612;2023-03-31T09:14:36;5.65;;;3.13;;
75696;SDS011;64312;44.738;20.612;2023-03-31T09:17:14;7.78;;;2.42;;
75696;SDS011;64312;44.738;20.612;2023-03-31T09:19:50;5.72;;;2.92;;
75696;SDS011;64312;44.738;20.612;2023-03-31T09:22:28;4.85;;;3.03;;
75696;SDS011;64312;44.738;20.612;2023-03-31T09:27:44;6.72;;;2.88;;
75696;SDS011;64312;44.738;20.612;2023-03-31T09:32:38;2.42;;;1.67;;
75696;SDS011;64312;44.738;20.612;2023-03-31T09:35:21;6.13;;;2.42;;
75696;SDS011;64312;44.738;20.612;2023-03-31T09:37:50;7.80;;;2.67;;
75696;SDS011;64312;44.738;20.612;2023-03-31T09:40:20;7.07;;;2.38;;
75696;SDS011;64312;44.738;20.612;2023-03-31T09:45:31;4.20;;;2.10;;
75696;SDS011;64312;44.738;20.612;2023-03-31T09:48:00;3.75;;;1.90;;
75696;SDS011;64312;44.738;20.612;2023-03-31T09:50:32;3.03;;;1.70;;
75696;SDS011;64312;44.738;20.612;2023-03-31T09:53:06;2.60;;;1.90;;
75696;SDS011;64312;44.738;20.612;2023-03-31T09:55:45;2.70;;;1.92;;
75696;SDS011;64312;44.738;20.612;2023-03-31T09:58:15;4.05;;;2.05;;
75696;SDS011;64312;44.738;20.612;2023-03-31T10:00:42;4.50;;;1.98;;
75696;SDS011;64312;44.738;20.612;2023-03-31T10:03:21;13.07;;;9.32;;
75696;SDS011;64312;44.738;20.612;2023-03-31T10:05:49;4.18;;;2.38;;
75696;SDS011;64312;44.738;20.612;2023-03-31T10:13:16;4.47;;;1.90;;
75696;SDS011;64312;44.738;20.612;2023-03-31T10:15:45;3.88;;;1.90;;
75696;SDS011;64312;44.738;20.612;2023-03-31T10:18:14;4.97;;;1.80;;
75696;SDS011;64312;44.738;20.612;2023-03-31T10:20:45;4.15;;;2.47;;
75696;SDS011;64312;44.738;20.612;2023-03-31T10:23:23;5.05;;;2.33;;
75696;SDS011;64312;44.738;20.612;2023-03-31T10:25:52;4.43;;;1.98;;
75696;SDS011;64312;44.738;20.612;2023-03-31T10:28:19;4.65;;;2.30;;
75696;SDS011;64312;44.738;20.612;2023-03-31T10:30:55;4.57;;;2.40;;
75696;SDS011;64312;44.738;20.612;2023-03-31T10:33:28;4.80;;;1.85;;
75696;SDS011;64312;44.738;20.612;2023-03-31T10:35:59;7.15;;;2.85;;
75696;SDS011;64312;44.738;20.612;2023-03-31T10:38:35;4.32;;;2.50;;
75696;SDS011;64312;44.738;20.612;2023-03-31T10:41:05;5.78;;;2.28;;
75696;SDS011;64312;44.738;20.612;2023-03-31T10:46:13;2.78;;;1.77;;
75696;SDS011;64312;44.738;20.612;2023-03-31T10:48:39;5.07;;;1.77;;
75696;SDS011;64312;44.738;20.612;2023-03-31T10:53:49;5.35;;;2.17;;
75696;SDS011;64312;44.738;20.612;2023-03-31T11:16:07;4.22;;;2.08;;
75696;SDS011;64312;44.738;20.612;2023-03-31T11:27:53;3.90;;;2.40;;
75696;SDS011;64312;44.738;20.612;2023-03-31T11:30:00;4.85;;;2.72;;
75696;SDS011;64312;44.738;20.612;2023-03-31T11:33:02;2.92;;;2.42;;
75696;SDS011;64312;44.738;20.612;2023-03-31T11:35:53;5.90;;;2.30;;
75696;SDS011;64312;44.738;20.612;2023-03-31T11:41:35;2.17;;;1.70;;
75696;SDS011;64312;44.738;20.612;2023-03-31T11:44:05;5.45;;;2.22;;
75696;SDS011;64312;44.738;20.612;2023-03-31T11:49:27;3.15;;;1.88;;
75696;SDS011;64312;44.738;20.612;2023-03-31T11:52:02;4.15;;;1.88;;
75696;SDS011;64312;44.738;20.612;2023-03-31T11:57:11;1.83;;;1.60;;
75696;SDS011;64312;44.738;20.612;2023-03-31T11:59:42;3.83;;;1.80;;
75696;SDS011;64312;44.738;20.612;2023-03-31T12:04:49;4.15;;;2.70;;
75696;SDS011;64312;44.738;20.612;2023-03-31T12:09:59;3.72;;;2.38;;
75696;SDS011;64312;44.738;20.612;2023-03-31T12:12:38;6.78;;;2.70;;
75696;SDS011;64312;44.738;20.612;2023-03-31T12:18:30;3.70;;;2.47;;
75696;SDS011;64312;44.738;20.612;2023-03-31T12:20:55;2.40;;;1.80;;
75696;SDS011;64312;44.738;20.612;2023-03-31T12:23:28;3.40;;;1.80;;
75696;SDS011;64312;44.738;20.612;2023-03-31T12:26:00;2.53;;;1.60;;
75696;SDS011;64312;44.738;20.612;2023-03-31T12:28:33;4.22;;;2.55;;
75696;SDS011;64312;44.738;20.612;2023-03-31T12:31:02;3.58;;;2.60;;
75696;SDS011;64312;44.738;20.612;2023-03-31T12:33:36;3.00;;;1.73;;
75696;SDS011;64312;44.738;20.612;2023-03-31T12:36:10;4.10;;;1.90;;
75696;SDS011;64312;44.738;20.612;2023-03-31T12:55:54;5.80;;;2.65;;
75696;SDS011;64312;44.738;20.612;2023-03-31T13:05:58;5.72;;;2.58;;
75696;SDS011;64312;44.738;20.612;2023-03-31T13:11:17;5.03;;;2.20;;
75696;SDS011;64312;44.738;20.612;2023-03-31T13:16:28;4.55;;;2.50;;
75696;SDS011;64312;44.738;20.612;2023-03-31T13:18:55;3.40;;;2.20;;
75696;SDS011;64312;44.738;20.612;2023-03-31T13:21:22;4.18;;;2.60;;
75696;SDS011;64312;44.738;20.612;2023-03-31T13:23:48;3.70;;;2.40;;
75696;SDS011;64312;44.738;20.612;2023-03-31T13:26:34;3.63;;;2.40;;
75696;SDS011;64312;44.738;20.612;2023-03-31T13:37:29;2.45;;;1.50;;
75696;SDS011;64312;44.738;20.612;2023-03-31T13:40:13;2.90;;;1.50;;
75696;SDS011;64312;44.738;20.612;2023-03-31T13:46:20;2.42;;;1.42;;
75696;SDS011;64312;44.738;20.612;2023-03-31T13:51:59;3.88;;;1.90;;
75696;SDS011;64312;44.738;20.612;2023-03-31T14:02:43;3.92;;;1.60;;
75696;SDS011;64312;44.738;20.612;2023-03-31T14:05:32;3.67;;;1.60;;
75696;SDS011;64312;44.738;20.612;2023-03-31T14:08:06;2.45;;;1.45;;
75696;SDS011;64312;44.738;20.612;2023-03-31T14:10:37;1.40;;;1.30;;
75696;SDS011;64312;44.738;20.612;2023-03-31T14:13:15;3.60;;;1.70;;
75696;SDS011;64312;44.738;20.612;2023-03-31T14:15:48;2.50;;;1.40;;
75696;SDS011;64312;44.738;20.612;2023-03-31T14:18:17;1.55;;;1.30;;
75696;SDS011;64312;44.738;20.612;2023-03-31T14:24:13;4.50;;;2.47;;
75696;SDS011;64312;44.738;20.612;2023-03-31T14:38:09;3.40;;;1.90;;
75696;SDS011;64312;44.738;20.612;2023-03-31T14:40:43;3.28;;;1.40;;
75696;SDS011;64312;44.738;20.612;2023-03-31T14:43:22;3.63;;;1.70;;
75696;SDS011;64312;44.738;20.612;2023-03-31T14:48:25;2.17;;;1.50;;
75696;SDS011;64312;44.738;20.612;2023-03-31T14:50:55;2.78;;;1.40;;
75696;SDS011;64312;44.738;20.612;2023-03-31T14:53:23;2.30;;;1.40;;
75696;SDS011;64312;44.738;20.612;2023-03-31T14:55:51;3.83;;;1.60;;
75696;SDS011;64312;44.738;20.612;2023-03-31T14:58:26;2.83;;;1.50;;
75696;SDS011;64312;44.738;20.612;2023-03-31T15:03:24;3.20;;;2.35;;
75696;SDS011;64312;44.738;20.612;2023-03-31T15:05:55;2.30;;;1.88;;
75696;SDS011;64312;44.738;20.612;2023-03-31T15:08:26;2.45;;;1.23;;
75696;SDS011;64312;44.738;20.612;2023-03-31T15:10:55;2.00;;;1.40;;
75696;SDS011;64312;44.738;20.612;2023-03-31T15:13:36;2.15;;;1.63;;
75696;SDS011;64312;44.738;20.612;2023-03-31T15:19:14;1.73;;;1.45;;
75696;SDS011;64312;44.738;20.612;2023-03-31T15:21:43;4.20;;;2.60;;
75696;SDS011;64312;44.738;20.612;2023-03-31T15:24:13;4.45;;;1.92;;
75696;SDS011;64312;44.738;20.612;2023-03-31T15:26:40;3.83;;;1.70;;
75696;SDS011;64312;44.738;20.612;2023-03-31T15:31:43;4.45;;;1.60;;
75696;SDS011;64312;44.738;20.612;2023-03-31T15:34:11;2.90;;;1.33;;
75696;SDS011;64312;44.738;20.612;2023-03-31T15:36:52;4.75;;;1.90;;
75696;SDS011;64312;44.738;20.612;2023-03-31T15:39:22;4.07;;;1.50;;
75696;SDS011;64312;44.738;20.612;2023-03-31T15:41:51;1.90;;;1.40;;
75696;SDS011;64312;44.738;20.612;2023-03-31T15:47:15;3.50;;;1.70;;
75696;SDS011;64312;44.738;20.612;2023-03-31T15:49:53;2.17;;;1.38;;
75696;SDS011;64312;44.738;20.612;2023-03-31T15:52:38;1.38;;;1.17;;
75696;SDS011;64312;44.738;20.612;2023-03-31T15:55:23;2.43;;;1.10;;
75696;SDS011;64312;44.738;20.612;2023-03-31T15:57:49;1.90;;;1.00;;
75696;SDS011;64312;44.738;20.612;2023-03-31T16:01:02;1.70;;;1.02;;
75696;SDS011;64312;44.738;20.612;2023-03-31T16:03:15;1.52;;;1.20;;
75696;SDS011;64312;44.738;20.612;2023-03-31T16:05:48;1.75;;;1.00;;
75696;SDS011;64312;44.738;20.612;2023-03-31T16:08:21;1.40;;;1.10;;
75696;SDS011;64312;44.738;20.612;2023-03-31T16:10:54;1.13;;;0.90;;
75696;SDS011;64312;44.738;20.612;2023-03-31T16:13:25;1.40;;;0.98;;
75696;SDS011;64312;44.738;20.612;2023-03-31T16:15:52;1.02;;;0.93;;
75696;SDS011;64312;44.738;20.612;2023-03-31T16:18:31;2.05;;;1.00;;
75696;SDS011;64312;44.738;20.612;2023-03-31T16:21:00;1.95;;;0.90;;
75696;SDS011;64312;44.738;20.612;2023-03-31T16:23:30;1.95;;;1.10;;
75696;SDS011;64312;44.738;20.612;2023-03-31T16:25:58;1.67;;;1.23;;
75696;SDS011;64312;44.738;20.612;2023-03-31T16:28:26;1.30;;;1.08;;
75696;SDS011;64312;44.738;20.612;2023-03-31T16:31:03;2.78;;;1.60;;
75696;SDS011;64312;44.738;20.612;2023-03-31T16:33:30;1.10;;;0.90;;
75696;SDS011;64312;44.738;20.612;2023-03-31T16:36:19;2.30;;;1.40;;
75696;SDS011;64312;44.738;20.612;2023-03-31T16:38:45;2.85;;;1.75;;
75696;SDS011;64312;44.738;20.612;2023-03-31T16:41:11;3.00;;;2.03;;
75696;SDS011;64312;44.738;20.612;2023-03-31T16:43:39;2.80;;;1.98;;
75696;SDS011;64312;44.738;20.612;2023-03-31T16:46:05;2.95;;;2.20;;
75696;SDS011;64312;44.738;20.612;2023-03-31T16:48:31;2.70;;;1.85;;
75696;SDS011;64312;44.738;20.612;2023-03-31T16:51:00;2.30;;;2.03;;
75696;SDS011;64312;44.738;20.612;2023-03-31T16:53:27;2.85;;;2.00;;
75696;SDS011;64312;44.738;20.612;2023-03-31T16:55:55;2.92;;;1.92;;
75696;SDS011;64312;44.738;20.612;2023-03-31T16:58:22;2.92;;;2.20;;
75696;SDS011;64312;44.738;20.612;2023-03-31T17:00:48;3.22;;;1.98;;
75696;SDS011;64312;44.738;20.612;2023-03-31T17:03:15;3.35;;;2.28;;
75696;SDS011;64312;44.738;20.612;2023-03-31T17:05:42;3.70;;;2.22;;
75696;SDS011;64312;44.738;20.612;2023-03-31T17:08:10;3.70;;;2.17;;
75696;SDS011;64312;44.738;20.612;2023-03-31T17:10:37;4.00;;;2.50;;
75696;SDS011;64312;44.738;20.612;2023-03-31T17:13:05;4.15;;;2.58;;
75696;SDS011;64312;44.738;20.612;2023-03-31T17:15:32;3.13;;;2.50;;
75696;SDS011;64312;44.738;20.612;2023-03-31T17:18:00;4.78;;;3.45;;
75696;SDS011;64312;44.738;20.612;2023-03-31T17:20:27;7.07;;;4.22;;
75696;SDS011;64312;44.738;20.612;2023-03-31T17:22:54;5.90;;;3.60;;
75696;SDS011;64312;44.738;20.612;2023-03-31T17:25:20;7.10;;;3.60;;
75696;SDS011;64312;44.738;20.612;2023-03-31T17:27:46;39.53;;;12.98;;
75696;SDS011;64312;44.738;20.612;2023-03-31T17:30:12;90.90;;;26.85;;
75696;SDS011;64312;44.738;20.612;2023-03-31T17:32:37;118.03;;;36.78;;
75696;SDS011;64312;44.738;20.612;2023-03-31T17:35:04;96.65;;;34.20;;
75696;SDS011;64312;44.738;20.612;2023-03-31T17:37:31;80.63;;;29.65;;
75696;SDS011;64312;44.738;20.612;2023-03-31T17:39:57;63.58;;;23.20;;
75696;SDS011;64312;44.738;20.612;2023-03-31T17:42:23;42.97;;;16.63;;
75696;SDS011;64312;44.738;20.612;2023-03-31T17:44:50;36.65;;;14.48;;
75696;SDS011;64312;44.738;20.612;2023-03-31T17:47:17;27.88;;;10.70;;
75696;SDS011;64312;44.738;20.612;2023-03-31T17:49:44;19.90;;;8.40;;
75696;SDS011;64312;44.738;20.612;2023-03-31T17:52:11;17.42;;;8.40;;
75696;SDS011;64312;44.738;20.612;2023-03-31T17:54:38;18.02;;;9.38;;
75696;SDS011;64312;44.738;20.612;2023-03-31T17:57:04;20.80;;;9.95;;
75696;SDS011;64312;44.738;20.612;2023-03-31T17:59:30;16.02;;;9.02;;
75696;SDS011;64312;44.738;20.612;2023-03-31T18:01:55;12.02;;;7.47;;
75696;SDS011;64312;44.738;20.612;2023-03-31T18:04:22;9.98;;;5.95;;
75696;SDS011;64312;44.738;20.612;2023-03-31T18:06:48;9.52;;;5.47;;